createdAt,value
2019-02-05T00:02:12.008Z,17.60
2019-02-05T00:04:42.304Z,15.93
2019-02-05T00:07:12.519Z,14.47
2019-02-05T00:09:43.703Z,19.57
2019-02-05T00:12:15.108Z,13.70
2019-02-05T00:14:44.195Z,18.60
2019-02-05T00:17:13.315Z,21.30
2019-02-05T00:19:44.104Z,17.57
2019-02-05T00:22:13.564Z,18.50
2019-02-05T00:24:43.200Z,14.60
2019-02-05T00:27:12.486Z,19.93
2019-02-05T00:29:41.597Z,16.90
2019-02-05T00:32:10.699Z,20.97
2019-02-05T00:34:41.206Z,18.73
2019-02-05T00:37:10.602Z,17.50
2019-02-05T00:39:39.988Z,16.07
2019-02-05T00:42:10.063Z,20.60
2019-02-05T00:44:39.141Z,17.50
2019-02-05T00:47:10.384Z,17.43
2019-02-05T00:49:41.583Z,19.17
2019-02-05T00:52:15.543Z,15.30
2019-02-05T00:54:47.926Z,20.00
2019-02-05T00:57:19.981Z,17.17
2019-02-05T00:59:53.664Z,18.13
2019-02-05T01:02:30.281Z,14.87
2019-02-05T01:04:59.389Z,16.23
2019-02-05T01:07:28.491Z,15.43
2019-02-05T01:09:57.600Z,20.53
2019-02-05T01:12:28.352Z,22.40
2019-02-05T01:15:00.491Z,22.53
2019-02-05T01:17:31.225Z,19.57
2019-02-05T01:20:02.737Z,23.03
2019-02-05T01:22:31.860Z,19.60
2019-02-05T01:25:01.053Z,16.00
2019-02-05T01:27:31.188Z,16.53
2019-02-05T01:30:03.547Z,14.60
2019-02-05T01:32:34.573Z,20.40
2019-02-05T01:35:07.034Z,16.10
2019-02-05T01:37:40.267Z,16.77
2019-02-05T01:40:11.542Z,19.20
2019-02-05T01:42:42.648Z,18.97
2019-02-05T01:45:14.316Z,19.10
2019-02-05T01:47:43.466Z,27.63
2019-02-05T01:50:17.539Z,21.63
2019-02-05T01:52:46.676Z,19.50
2019-02-05T01:55:15.772Z,24.80
2019-02-05T01:57:48.599Z,20.43
2019-02-05T02:00:23.064Z,24.40
2019-02-05T02:02:53.711Z,17.57
2019-02-05T02:05:23.427Z,24.07
2019-02-05T02:07:57.180Z,20.33
2019-02-05T02:10:32.552Z,19.23
2019-02-05T02:13:08.715Z,18.87
2019-02-05T02:15:37.900Z,17.57
2019-02-05T02:18:07.124Z,23.33
2019-02-05T02:20:37.623Z,21.80
2019-02-05T02:23:11.194Z,19.70
2019-02-05T02:25:40.594Z,20.80
2019-02-05T02:28:12.539Z,18.80
2019-02-05T02:30:45.091Z,22.37
2019-02-05T02:33:12.533Z,15.47
2019-02-05T02:35:41.685Z,23.43
2019-02-05T02:38:12.274Z,23.77
2019-02-05T02:40:45.702Z,24.93
2019-02-05T02:43:14.845Z,20.03
2019-02-05T02:45:43.946Z,19.00
2019-02-05T02:48:13.781Z,26.40
2019-02-05T02:50:43.051Z,24.90
2019-02-05T02:53:12.143Z,28.67
2019-02-05T02:55:42.513Z,23.67
2019-02-05T02:58:13.623Z,27.63
2019-02-05T03:00:45.330Z,21.93
2019-02-05T03:03:15.280Z,23.67
2019-02-05T03:05:44.415Z,23.23
2019-02-05T03:08:16.528Z,27.33
2019-02-05T03:10:46.015Z,28.33
2019-02-05T03:13:18.733Z,22.87
2019-02-05T03:15:49.023Z,24.00
2019-02-05T03:18:19.310Z,23.03
2019-02-05T03:20:50.259Z,26.43
2019-02-05T03:23:25.732Z,25.93
2019-02-05T03:25:57.868Z,25.80
2019-02-05T03:28:27.137Z,26.30
2019-02-05T03:30:57.364Z,21.30
2019-02-05T03:33:27.642Z,24.30
2019-02-05T03:35:57.875Z,27.40
2019-02-05T03:38:30.078Z,26.00
2019-02-05T03:41:05.671Z,20.57
2019-02-05T03:43:39.833Z,30.40
2019-02-05T03:46:18.618Z,21.10
2019-02-05T03:48:49.481Z,24.67
2019-02-05T03:51:46.058Z,27.53
2019-02-05T03:55:06.687Z,29.10
2019-02-05T03:58:05.804Z,21.00
2019-02-05T04:01:19.219Z,21.77
2019-02-05T04:04:00.261Z,29.43
2019-02-05T04:07:11.134Z,22.00
2019-02-05T04:10:17.036Z,28.70
2019-02-05T04:13:33.247Z,26.30
2019-02-05T04:16:49.090Z,20.90
2019-02-05T04:19:53.710Z,21.20
2019-02-05T04:23:09.861Z,20.83
2019-02-05T04:26:07.919Z,25.63
2019-02-05T04:29:03.862Z,24.27
2019-02-05T04:32:09.866Z,24.30
2019-02-05T04:35:32.530Z,26.57
2019-02-05T04:38:42.199Z,16.93
2019-02-05T04:41:49.495Z,24.20
2019-02-05T04:44:59.865Z,28.57
2019-02-05T04:47:51.871Z,33.37
2019-02-05T04:51:07.098Z,22.30
2019-02-05T04:54:03.759Z,22.43
2019-02-05T04:57:07.132Z,24.00
2019-02-05T05:00:29.710Z,24.63
2019-02-05T05:03:24.001Z,37.73
2019-02-05T05:06:30.124Z,28.97
2019-02-05T05:09:13.939Z,29.03
2019-02-05T05:11:48.504Z,27.57
2019-02-05T05:14:17.648Z,20.30
2019-02-05T05:16:48.746Z,23.93
2019-02-05T05:19:18.524Z,23.43
2019-02-05T05:21:50.734Z,24.17
2019-02-05T05:24:23.045Z,26.67
2019-02-05T05:26:54.355Z,26.27
2019-02-05T05:29:26.047Z,24.17
2019-02-05T05:31:56.457Z,25.77
2019-02-05T05:34:28.314Z,24.37
2019-02-05T05:36:56.242Z,23.10
2019-02-05T05:39:25.402Z,23.03
2019-02-05T05:41:57.207Z,23.87
2019-02-05T05:44:26.843Z,28.30
2019-02-05T05:47:02.100Z,25.23
2019-02-05T05:49:33.576Z,29.47
2019-02-05T05:52:04.377Z,29.20
2019-02-05T05:54:33.870Z,33.70
2019-02-05T05:57:04.066Z,29.17
2019-02-05T05:59:38.170Z,23.07
2019-02-05T06:02:07.707Z,23.80
2019-02-05T06:04:36.920Z,27.43
2019-02-05T06:07:06.016Z,22.30
2019-02-05T06:09:36.361Z,22.77
2019-02-05T06:12:10.925Z,24.67
2019-02-05T06:14:44.880Z,24.07
2019-02-05T06:17:17.865Z,24.47
2019-02-05T06:19:47.650Z,28.40
2019-02-05T06:22:17.177Z,22.50
2019-02-05T06:24:46.487Z,22.20
2019-02-05T06:27:16.473Z,27.43
2019-02-05T06:29:49.608Z,30.00
2019-02-05T06:32:18.743Z,30.00
2019-02-05T06:34:51.972Z,31.77
2019-02-05T06:37:24.635Z,29.47
2019-02-05T06:39:53.781Z,26.70
2019-02-05T06:42:28.932Z,34.80
2019-02-05T06:44:58.790Z,25.73
2019-02-05T06:47:27.963Z,28.27
2019-02-05T06:49:57.105Z,28.30
2019-02-05T06:52:26.239Z,29.00
2019-02-05T06:54:55.391Z,30.83
2019-02-05T06:57:30.697Z,35.83
2019-02-05T07:00:04.970Z,32.53
2019-02-05T07:02:34.247Z,31.33
2019-02-05T07:05:03.645Z,34.67
2019-02-05T07:07:34.557Z,30.63
2019-02-05T07:10:07.415Z,29.10
2019-02-05T07:12:43.036Z,26.80
2019-02-05T07:15:12.167Z,27.00
2019-02-05T07:17:49.705Z,28.80
2019-02-05T07:20:17.829Z,30.50
2019-02-05T07:22:46.926Z,27.13
2019-02-05T07:25:18.041Z,26.60
2019-02-05T07:27:47.401Z,30.27
2019-02-05T07:30:19.833Z,28.00
2019-02-05T07:32:54.637Z,25.20
2019-02-05T07:35:26.265Z,25.17
2019-02-05T07:37:55.699Z,32.70
2019-02-05T07:40:29.172Z,32.73
2019-02-05T07:43:07.530Z,36.00
2019-02-05T07:45:41.116Z,25.93
2019-02-05T07:48:10.794Z,21.90
2019-02-05T07:50:44.038Z,28.17
2019-02-05T07:53:13.118Z,29.07
2019-02-05T07:55:44.785Z,28.23
2019-02-05T07:58:13.925Z,21.80
2019-02-05T08:00:44.135Z,23.40
2019-02-05T08:03:18.768Z,25.53
2019-02-05T08:05:48.682Z,32.63
2019-02-05T08:08:17.793Z,28.00
2019-02-05T08:10:52.813Z,30.80
2019-02-05T08:13:27.301Z,31.50
2019-02-05T08:15:56.394Z,28.03
2019-02-05T08:18:28.176Z,28.20
2019-02-05T08:21:02.341Z,31.13
2019-02-05T08:23:31.774Z,28.87
2019-02-05T08:26:01.187Z,26.07
2019-02-05T08:28:40.663Z,32.43
2019-02-05T08:31:03.227Z,25.83
2019-02-05T08:33:32.414Z,26.97
2019-02-05T08:36:01.620Z,30.53
2019-02-05T08:38:30.838Z,28.30
2019-02-05T08:40:59.963Z,32.83
2019-02-05T08:43:29.463Z,25.67
2019-02-05T08:46:15.665Z,28.43
2019-02-05T08:48:49.880Z,27.97
2019-02-05T08:51:19.026Z,29.53
2019-02-05T08:53:49.786Z,23.60
2019-02-05T08:56:19.031Z,23.07
2019-02-05T08:58:53.377Z,27.10
2019-02-05T09:01:22.565Z,23.23
2019-02-05T09:03:53.644Z,31.77
2019-02-05T09:06:23.284Z,31.53
2019-02-05T09:08:52.597Z,24.77
2019-02-05T09:11:21.688Z,30.90
2019-02-05T09:13:52.017Z,27.83
2019-02-05T09:16:22.211Z,28.80
2019-02-05T09:18:53.688Z,30.40
2019-02-05T09:21:26.982Z,29.20
2019-02-05T09:23:56.114Z,23.43
2019-02-05T09:26:25.427Z,22.13
2019-02-05T09:29:00.569Z,22.53
2019-02-05T09:31:43.171Z,29.93
2019-02-05T09:34:16.133Z,24.60
2019-02-05T09:36:49.675Z,22.60
2019-02-05T09:39:20.461Z,27.03
2019-02-05T09:41:50.796Z,23.63
2019-02-05T09:44:20.549Z,24.10
2019-02-05T09:46:49.801Z,25.63
2019-02-05T09:49:20.085Z,23.73
2019-02-05T09:51:52.120Z,26.67
2019-02-05T09:54:21.277Z,17.80
2019-02-05T09:56:50.391Z,20.57
2019-02-05T09:59:19.833Z,30.07
2019-02-05T10:01:50.636Z,20.77
2019-02-05T10:04:20.221Z,33.57
2019-02-05T10:06:50.098Z,13.77
2019-02-05T10:09:19.373Z,21.77
2019-02-05T10:11:48.505Z,15.97
2019-02-05T10:14:20.337Z,18.77
2019-02-05T10:16:49.613Z,20.87
2019-02-05T10:19:20.828Z,20.10
2019-02-05T10:21:51.834Z,20.23
2019-02-05T10:24:21.872Z,29.23
2019-02-05T10:26:52.344Z,25.00
2019-02-05T10:29:24.433Z,21.33
2019-02-05T10:31:54.527Z,23.57
2019-02-05T10:34:33.827Z,18.50
2019-02-05T10:36:59.409Z,23.03
2019-02-05T10:39:28.714Z,19.13
2019-02-05T10:42:00.702Z,19.03
2019-02-05T10:44:36.781Z,17.27
2019-02-05T10:47:06.135Z,24.23
2019-02-05T10:49:35.302Z,19.73
2019-02-05T10:52:05.506Z,18.93
2019-02-05T10:54:39.499Z,16.30
2019-02-05T10:57:09.411Z,24.37
2019-02-05T10:59:41.743Z,16.60
2019-02-05T11:02:12.038Z,18.03
2019-02-05T11:04:41.895Z,20.53
2019-02-05T11:07:16.727Z,18.50
2019-02-05T11:09:45.905Z,17.43
2019-02-05T11:12:16.459Z,15.63
2019-02-05T11:14:45.857Z,14.03
2019-02-05T11:17:15.152Z,14.30
2019-02-05T11:19:45.966Z,15.40
2019-02-05T11:22:15.105Z,13.37
2019-02-05T11:24:44.320Z,18.73
2019-02-05T11:27:17.644Z,14.70
2019-02-05T11:29:53.256Z,15.30
2019-02-05T11:32:22.615Z,16.10
2019-02-05T11:34:53.308Z,13.50
2019-02-05T11:37:22.477Z,14.67
2019-02-05T11:39:51.808Z,14.70
2019-02-05T11:42:21.069Z,15.37
2019-02-05T11:45:00.817Z,15.53
2019-02-05T11:47:29.935Z,15.00
2019-02-05T11:50:01.794Z,13.63
2019-02-05T11:52:31.577Z,12.90
2019-02-05T11:55:01.156Z,13.70
2019-02-05T11:57:33.010Z,12.70
2019-02-05T12:00:02.595Z,13.07
2019-02-05T12:02:33.836Z,12.90
2019-02-05T12:05:06.181Z,13.17
2019-02-05T12:07:35.277Z,15.90
2019-02-05T12:10:05.118Z,12.40
2019-02-05T12:12:38.871Z,14.97
2019-02-05T12:15:09.497Z,14.83
2019-02-05T12:17:38.753Z,16.30
2019-02-05T12:20:12.129Z,17.67
2019-02-05T12:22:41.311Z,11.50
2019-02-05T12:25:12.928Z,14.50
2019-02-05T12:27:46.702Z,13.53
2019-02-05T12:30:23.273Z,16.43
2019-02-05T12:32:57.564Z,14.37
2019-02-05T12:35:26.769Z,11.77
2019-02-05T12:37:55.901Z,12.60
2019-02-05T12:40:25.766Z,13.97
2019-02-05T12:42:57.806Z,9.53
2019-02-05T12:45:28.203Z,9.97
2019-02-05T12:47:57.268Z,12.67
2019-02-05T12:50:28.508Z,11.93
2019-02-05T12:52:58.298Z,10.37
2019-02-05T12:55:31.621Z,11.90
2019-02-05T12:58:09.230Z,14.33
2019-02-05T13:00:56.598Z,12.60
2019-02-05T13:03:18.023Z,12.40
2019-02-05T13:05:56.606Z,11.37
2019-02-05T13:08:30.815Z,10.13
2019-02-05T13:11:08.591Z,9.57
2019-02-05T13:13:37.883Z,14.50
2019-02-05T13:16:11.450Z,13.30
2019-02-05T13:18:42.731Z,10.80
2019-02-05T13:21:15.118Z,16.30
2019-02-05T13:23:47.717Z,10.10
2019-02-05T13:26:15.259Z,14.13
2019-02-05T13:28:44.652Z,14.47
2019-02-05T13:31:13.765Z,14.47
2019-02-05T13:33:45.335Z,12.37
2019-02-05T13:36:22.509Z,12.17
2019-02-05T13:38:55.518Z,9.97
2019-02-05T13:41:30.240Z,12.50
2019-02-05T13:44:07.747Z,10.60
2019-02-05T13:46:37.052Z,12.50
2019-02-05T13:49:08.605Z,10.87
2019-02-05T13:51:53.184Z,14.40
2019-02-05T13:54:26.257Z,13.07
2019-02-05T13:56:59.297Z,12.60
2019-02-05T13:59:28.418Z,13.30
2019-02-05T14:01:58.058Z,13.47
2019-02-05T14:04:31.595Z,13.77
2019-02-05T14:07:02.863Z,11.97
2019-02-05T14:09:33.753Z,13.90
2019-02-05T14:12:09.556Z,10.97
2019-02-05T14:14:36.378Z,14.43
2019-02-05T14:17:05.518Z,10.47
2019-02-05T14:19:34.601Z,13.60
2019-02-05T14:22:05.758Z,13.20
2019-02-05T14:24:37.238Z,15.97
2019-02-05T14:27:12.155Z,17.17
2019-02-05T14:29:46.007Z,15.13
2019-02-05T14:32:16.137Z,12.33
2019-02-05T14:34:45.274Z,19.10
2019-02-05T14:37:18.870Z,16.40
2019-02-05T14:39:49.053Z,17.30
2019-02-05T14:42:21.849Z,14.77
2019-02-05T14:44:55.346Z,15.30
2019-02-05T14:47:28.040Z,18.60
2019-02-05T14:49:59.023Z,15.13
2019-02-05T14:55:22.279Z,17.83
2019-02-05T14:57:52.804Z,18.43
2019-02-05T15:00:41.783Z,20.80
2019-02-05T15:03:16.045Z,17.33
2019-02-05T15:05:46.023Z,21.03
2019-02-05T15:08:18.742Z,18.77
2019-02-05T15:11:02.058Z,27.20
2019-02-05T15:13:18.902Z,26.70
2019-02-05T15:15:48.327Z,25.20
2019-02-05T15:18:22.252Z,27.83
2019-02-05T15:20:57.117Z,20.47
2019-02-05T15:23:29.694Z,20.77
2019-02-05T15:25:59.320Z,23.37
2019-02-05T15:28:28.429Z,23.20
2019-02-05T15:30:59.680Z,31.57
2019-02-05T15:33:46.886Z,29.17
2019-02-05T15:36:32.029Z,20.07
2019-02-05T15:39:01.254Z,31.30
2019-02-05T15:41:36.456Z,30.47
2019-02-05T15:44:05.621Z,27.50
2019-02-05T15:46:34.808Z,26.90
2019-02-05T15:49:04.748Z,22.10
2019-02-05T15:51:33.839Z,22.17
2019-02-05T15:54:09.964Z,24.30
2019-02-05T15:56:39.049Z,26.53
2019-02-05T15:59:12.281Z,23.27
2019-02-05T16:01:41.499Z,23.50
2019-02-05T16:04:17.544Z,29.00
2019-02-05T16:06:50.183Z,27.40
2019-02-05T16:09:19.256Z,29.37
2019-02-05T16:11:51.767Z,27.10
2019-02-05T16:14:26.386Z,25.70
2019-02-05T16:16:55.525Z,18.70
2019-02-05T16:19:25.767Z,22.17
2019-02-05T16:21:54.850Z,30.60
2019-02-05T16:24:25.051Z,22.43
2019-02-05T16:26:54.207Z,23.27
2019-02-05T16:29:32.735Z,19.27
2019-02-05T16:32:01.821Z,18.40
2019-02-05T16:34:30.932Z,23.40
2019-02-05T16:37:00.253Z,19.80
2019-02-05T16:39:32.866Z,22.80
2019-02-05T16:42:02.034Z,21.27
2019-02-05T16:44:32.725Z,26.20
2019-02-05T16:47:04.332Z,18.50
2019-02-05T16:49:33.442Z,17.73
2019-02-05T16:52:02.821Z,15.67
2019-02-05T16:54:34.600Z,20.93
2019-02-05T16:57:03.725Z,21.43
2019-02-05T16:59:35.196Z,24.00
2019-02-05T17:02:04.291Z,23.33
2019-02-05T17:04:33.461Z,22.17
2019-02-05T17:07:03.982Z,17.20
2019-02-05T17:09:34.650Z,21.87
2019-02-05T17:12:09.817Z,20.27
2019-02-05T17:14:38.956Z,21.20
2019-02-05T17:17:09.344Z,21.40
2019-02-05T17:19:39.041Z,22.57
2019-02-05T17:22:08.126Z,18.90
2019-02-05T17:24:37.211Z,22.53
2019-02-05T17:27:07.484Z,21.27
2019-02-05T17:29:38.290Z,21.20
2019-02-05T17:32:09.361Z,21.80
2019-02-05T17:34:40.673Z,31.60
2019-02-05T17:37:10.906Z,22.23
2019-02-05T17:39:43.379Z,19.20
2019-02-05T17:42:17.457Z,22.00
2019-02-05T17:44:48.170Z,24.00
2019-02-05T17:47:18.178Z,25.23
2019-02-05T17:49:49.928Z,19.27
2019-02-05T17:52:20.636Z,22.07
2019-02-05T17:54:49.967Z,17.93
2019-02-05T17:57:19.040Z,19.20
2019-02-05T17:59:50.495Z,20.30
2019-02-05T18:02:22.918Z,26.10
2019-02-05T18:04:52.091Z,20.07
2019-02-05T18:07:21.218Z,19.23
2019-02-05T18:09:50.343Z,20.30
2019-02-05T18:12:24.026Z,21.80
2019-02-05T18:14:58.170Z,23.93
2019-02-05T18:17:27.465Z,28.67
2019-02-05T18:19:57.010Z,18.83
2019-02-05T18:22:27.016Z,22.27
2019-02-05T18:24:59.573Z,21.37
2019-02-05T18:27:32.787Z,24.33
2019-02-05T18:30:03.594Z,22.80
2019-02-05T18:32:32.757Z,28.30
2019-02-05T18:35:01.913Z,24.27
2019-02-05T18:37:32.856Z,25.03
2019-02-05T18:40:02.227Z,18.83
2019-02-05T18:42:31.359Z,18.90
2019-02-05T18:45:01.541Z,23.23
2019-02-05T18:47:38.373Z,21.23
2019-02-05T18:50:09.342Z,17.90
2019-02-05T18:52:39.734Z,25.53
2019-02-05T18:55:12.615Z,25.53
2019-02-05T18:57:45.257Z,17.13
2019-02-05T19:00:20.989Z,23.33
2019-02-05T19:02:51.966Z,24.00
2019-02-05T19:05:21.680Z,19.53
2019-02-05T19:07:50.800Z,20.67
2019-02-05T19:10:24.171Z,25.20
2019-02-05T19:12:54.779Z,22.93
2019-02-05T19:15:28.496Z,22.67
2019-02-05T19:17:59.702Z,19.73
2019-02-05T19:20:41.081Z,23.13
2019-02-05T19:23:12.036Z,31.53
2019-02-05T19:26:00.506Z,32.70
2019-02-05T19:28:38.640Z,39.40
2019-02-05T19:31:30.829Z,42.10
2019-02-05T19:34:06.274Z,43.87
2019-02-05T19:36:35.464Z,40.47
2019-02-05T19:39:06.522Z,44.87
2019-02-05T19:41:36.801Z,44.63
2019-02-05T19:44:06.290Z,44.90
2019-02-05T19:47:06.673Z,39.77
2019-02-05T19:49:37.720Z,37.50
2019-02-05T19:52:13.731Z,42.27
2019-02-05T19:54:42.938Z,31.20
2019-02-05T19:57:12.034Z,39.40
2019-02-05T19:59:42.432Z,35.60
2019-02-05T20:02:11.531Z,41.17
2019-02-05T20:04:43.040Z,34.87
2019-02-05T20:07:17.279Z,36.40
2019-02-05T20:09:46.349Z,40.67
2019-02-05T20:12:16.838Z,35.83
2019-02-05T20:14:52.501Z,29.97
2019-02-05T20:17:21.706Z,34.57
2019-02-05T20:19:50.770Z,31.00
2019-02-05T20:22:21.599Z,26.07
2019-02-05T20:24:50.938Z,28.67
2019-02-05T20:27:26.541Z,30.17
2019-02-05T20:30:03.781Z,27.23
2019-02-05T20:32:32.916Z,22.40
2019-02-05T20:35:02.221Z,28.53
2019-02-05T20:37:36.641Z,27.60
2019-02-05T20:40:11.599Z,21.60
2019-02-05T20:42:42.733Z,24.27
2019-02-05T20:45:12.347Z,17.20
2019-02-05T20:47:43.925Z,27.57
2019-02-05T20:50:17.329Z,24.13
2019-02-05T20:52:48.186Z,26.30
2019-02-05T20:55:19.754Z,24.10
2019-02-05T20:57:53.342Z,21.63
2019-02-05T21:00:22.714Z,17.60
2019-02-05T21:02:53.510Z,21.50
2019-02-05T21:05:24.888Z,20.50
2019-02-05T21:07:55.767Z,24.50
2019-02-05T21:10:25.053Z,24.37
2019-02-05T21:12:55.764Z,26.73
2019-02-05T21:15:27.092Z,26.93
2019-02-05T21:17:55.987Z,28.23
2019-02-05T21:20:30.816Z,21.23
2019-02-05T21:22:57.060Z,27.83
2019-02-05T21:25:31.534Z,21.13
2019-02-05T21:28:00.644Z,25.13
2019-02-05T21:30:29.885Z,24.80
2019-02-05T21:33:04.192Z,29.03
2019-02-05T21:35:33.399Z,22.77
2019-02-05T21:38:06.648Z,35.23
2019-02-05T21:40:36.971Z,31.47
2019-02-05T21:43:08.653Z,21.50
2019-02-05T21:45:37.835Z,21.20
2019-02-05T21:48:06.970Z,19.13
2019-02-05T21:50:36.064Z,26.40
2019-02-05T21:53:05.472Z,26.53
2019-02-05T21:55:34.826Z,25.20
2019-02-05T21:58:07.265Z,24.07
2019-02-05T22:00:39.487Z,23.37
2019-02-05T22:03:08.586Z,23.63
2019-02-05T22:05:40.209Z,19.90
2019-02-05T22:08:12.264Z,20.37
2019-02-05T22:10:42.933Z,27.27
2019-02-05T22:13:14.904Z,19.37
2019-02-05T22:15:46.360Z,19.50
2019-02-05T22:18:15.502Z,25.83
2019-02-05T22:20:44.936Z,27.40
2019-02-05T22:23:23.634Z,19.00
2019-02-05T22:25:53.658Z,17.67
2019-02-05T22:28:23.616Z,25.50
2019-02-05T22:30:53.205Z,20.10
2019-02-05T22:33:28.541Z,19.20
2019-02-05T22:35:59.424Z,17.00
2019-02-05T22:38:30.129Z,17.13
2019-02-05T22:41:00.413Z,23.43
2019-02-05T22:43:34.030Z,22.27
2019-02-05T22:46:03.162Z,21.33
2019-02-05T22:48:32.671Z,16.00
2019-02-05T22:51:01.788Z,15.70
2019-02-05T22:53:34.081Z,17.80
2019-02-05T22:56:07.824Z,20.47
2019-02-05T22:58:36.944Z,23.40
2019-02-05T23:01:42.869Z,22.90
2019-02-05T23:04:52.910Z,24.67
2019-02-05T23:07:25.195Z,17.00
2019-02-05T23:10:40.336Z,16.77
2019-02-05T23:13:12.265Z,18.00
2019-02-05T23:15:45.286Z,21.87
2019-02-05T23:18:17.372Z,16.90
2019-02-05T23:20:48.425Z,23.60
2019-02-05T23:23:20.122Z,17.63
2019-02-05T23:25:49.227Z,19.67
2019-02-05T23:28:18.539Z,19.87
2019-02-05T23:30:49.345Z,16.50
2019-02-05T23:33:19.653Z,19.77
2019-02-05T23:35:50.437Z,16.30
2019-02-05T23:38:19.530Z,17.77
2019-02-05T23:40:48.869Z,20.30
2019-02-05T23:43:22.323Z,16.17
2019-02-05T23:46:01.496Z,19.10
2019-02-05T23:48:26.613Z,17.63
2019-02-05T23:51:00.969Z,19.33
2019-02-05T23:53:29.779Z,19.87
2019-02-05T23:55:58.959Z,27.27
2019-02-05T23:58:30.163Z,20.83
